sensor_id;sensor_type;location;lat;lon;timestamp;P1;durP1;ratioP1;P2;durP2;ratioP2
25479;SDS011;13393;49.378;8.686;2022-12-18T00:01:45;76.90;;;35.70;;
25479;SDS011;13393;49.378;8.686;2022-12-18T00:04:15;77.07;;;33.90;;
25479;SDS011;13393;49.378;8.686;2022-12-18T00:06:44;69.57;;;32.00;;
25479;SDS011;13393;49.378;8.686;2022-12-18T00:09:10;79.07;;;32.57;;
25479;SDS011;13393;49.378;8.686;2022-12-18T00:11:38;70.00;;;33.03;;
25479;SDS011;13393;49.378;8.686;2022-12-18T00:14:04;72.70;;;33.47;;
25479;SDS011;13393;49.378;8.686;2022-12-18T00:16:31;66.30;;;32.03;;
25479;SDS011;13393;49.378;8.686;2022-12-18T00:19:00;74.13;;;32.70;;
25479;SDS011;13393;49.378;8.686;2022-12-18T00:21:27;73.60;;;31.33;;
25479;SDS011;13393;49.378;8.686;2022-12-18T00:23:53;70.00;;;31.93;;
25479;SDS011;13393;49.378;8.686;2022-12-18T00:26:20;80.63;;;34.23;;
25479;SDS011;13393;49.378;8.686;2022-12-18T00:28:49;74.40;;;33.90;;
25479;SDS011;13393;49.378;8.686;2022-12-18T00:31:16;76.93;;;33.43;;
25479;SDS011;13393;49.378;8.686;2022-12-18T00:33:42;73.83;;;31.50;;
25479;SDS011;13393;49.378;8.686;2022-12-18T00:36:09;70.43;;;32.53;;
25479;SDS011;13393;49.378;8.686;2022-12-18T00:38:36;69.47;;;32.07;;
25479;SDS011;13393;49.378;8.686;2022-12-18T00:41:03;66.33;;;29.00;;
25479;SDS011;13393;49.378;8.686;2022-12-18T00:43:29;70.00;;;33.00;;
25479;SDS011;13393;49.378;8.686;2022-12-18T00:45:56;72.33;;;31.37;;
25479;SDS011;13393;49.378;8.686;2022-12-18T00:48:22;96.83;;;32.70;;
25479;SDS011;13393;49.378;8.686;2022-12-18T00:50:49;75.83;;;32.07;;
25479;SDS011;13393;49.378;8.686;2022-12-18T00:53:16;70.80;;;31.47;;
25479;SDS011;13393;49.378;8.686;2022-12-18T00:55:42;64.87;;;30.93;;
25479;SDS011;13393;49.378;8.686;2022-12-18T00:58:09;73.63;;;30.70;;
25479;SDS011;13393;49.378;8.686;2022-12-18T01:00:36;70.73;;;33.30;;
25479;SDS011;13393;49.378;8.686;2022-12-18T01:03:04;72.83;;;33.70;;
25479;SDS011;13393;49.378;8.686;2022-12-18T01:05:31;63.33;;;28.00;;
25479;SDS011;13393;49.378;8.686;2022-12-18T01:07:57;62.23;;;28.10;;
25479;SDS011;13393;49.378;8.686;2022-12-18T01:10:23;72.17;;;31.10;;
25479;SDS011;13393;49.378;8.686;2022-12-18T01:12:50;60.97;;;28.53;;
25479;SDS011;13393;49.378;8.686;2022-12-18T01:15:16;67.10;;;28.70;;
25479;SDS011;13393;49.378;8.686;2022-12-18T01:17:43;61.00;;;28.70;;
25479;SDS011;13393;49.378;8.686;2022-12-18T01:20:12;59.03;;;28.07;;
25479;SDS011;13393;49.378;8.686;2022-12-18T01:22:38;55.77;;;27.27;;
25479;SDS011;13393;49.378;8.686;2022-12-18T01:25:05;63.03;;;28.93;;
25479;SDS011;13393;49.378;8.686;2022-12-18T01:27:32;76.57;;;30.03;;
25479;SDS011;13393;49.378;8.686;2022-12-18T01:29:59;66.23;;;28.87;;
25479;SDS011;13393;49.378;8.686;2022-12-18T01:32:25;70.83;;;31.50;;
25479;SDS011;13393;49.378;8.686;2022-12-18T01:34:52;71.50;;;29.50;;
25479;SDS011;13393;49.378;8.686;2022-12-18T01:37:19;62.57;;;28.33;;
25479;SDS011;13393;49.378;8.686;2022-12-18T01:39:46;61.00;;;28.40;;
25479;SDS011;13393;49.378;8.686;2022-12-18T01:42:13;61.07;;;28.97;;
25479;SDS011;13393;49.378;8.686;2022-12-18T01:44:54;70.73;;;31.20;;
25479;SDS011;13393;49.378;8.686;2022-12-18T01:47:21;68.07;;;30.07;;
25479;SDS011;13393;49.378;8.686;2022-12-18T01:49:49;72.47;;;31.60;;
25479;SDS011;13393;49.378;8.686;2022-12-18T01:52:16;62.10;;;28.73;;
25479;SDS011;13393;49.378;8.686;2022-12-18T01:54:44;67.43;;;28.37;;
25479;SDS011;13393;49.378;8.686;2022-12-18T01:57:11;64.07;;;29.27;;
25479;SDS011;13393;49.378;8.686;2022-12-18T01:59:37;64.50;;;29.50;;
25479;SDS011;13393;49.378;8.686;2022-12-18T02:02:05;62.60;;;28.90;;
25479;SDS011;13393;49.378;8.686;2022-12-18T02:04:32;65.57;;;29.53;;
25479;SDS011;13393;49.378;8.686;2022-12-18T02:06:59;67.20;;;30.37;;
25479;SDS011;13393;49.378;8.686;2022-12-18T02:09:31;66.23;;;28.93;;
25479;SDS011;13393;49.378;8.686;2022-12-18T02:12:02;66.87;;;29.13;;
25479;SDS011;13393;49.378;8.686;2022-12-18T02:14:31;74.23;;;31.73;;
25479;SDS011;13393;49.378;8.686;2022-12-18T02:17:04;69.10;;;30.17;;
25479;SDS011;13393;49.378;8.686;2022-12-18T02:19:39;66.20;;;30.80;;
25479;SDS011;13393;49.378;8.686;2022-12-18T02:22:07;51.75;;;22.60;;
25479;SDS011;13393;49.378;8.686;2022-12-18T02:24:38;64.30;;;28.27;;
25479;SDS011;13393;49.378;8.686;2022-12-18T02:27:09;56.30;;;26.07;;
25479;SDS011;13393;49.378;8.686;2022-12-18T02:29:37;52.20;;;24.60;;
25479;SDS011;13393;49.378;8.686;2022-12-18T02:32:06;59.07;;;26.37;;
25479;SDS011;13393;49.378;8.686;2022-12-18T02:34:34;65.57;;;30.33;;
25479;SDS011;13393;49.378;8.686;2022-12-18T02:37:03;58.43;;;27.60;;
25479;SDS011;13393;49.378;8.686;2022-12-18T02:39:31;61.63;;;27.00;;
25479;SDS011;13393;49.378;8.686;2022-12-18T02:41:58;58.70;;;27.47;;
25479;SDS011;13393;49.378;8.686;2022-12-18T02:44:26;64.13;;;29.00;;
25479;SDS011;13393;49.378;8.686;2022-12-18T02:46:53;57.00;;;27.03;;
25479;SDS011;13393;49.378;8.686;2022-12-18T02:49:22;60.17;;;26.80;;
25479;SDS011;13393;49.378;8.686;2022-12-18T02:51:52;61.00;;;25.80;;
25479;SDS011;13393;49.378;8.686;2022-12-18T02:57:20;54.93;;;26.90;;
25479;SDS011;13393;49.378;8.686;2022-12-18T02:59:54;56.33;;;26.03;;
25479;SDS011;13393;49.378;8.686;2022-12-18T03:02:23;57.47;;;25.50;;
25479;SDS011;13393;49.378;8.686;2022-12-18T03:04:53;59.67;;;25.67;;
25479;SDS011;13393;49.378;8.686;2022-12-18T03:07:25;64.17;;;28.87;;
25479;SDS011;13393;49.378;8.686;2022-12-18T03:09:52;60.33;;;27.27;;
25479;SDS011;13393;49.378;8.686;2022-12-18T03:12:20;64.60;;;29.17;;
25479;SDS011;13393;49.378;8.686;2022-12-18T03:14:50;56.97;;;26.13;;
25479;SDS011;13393;49.378;8.686;2022-12-18T03:17:20;54.33;;;25.60;;
25479;SDS011;13393;49.378;8.686;2022-12-18T03:19:49;59.00;;;26.50;;
25479;SDS011;13393;49.378;8.686;2022-12-18T03:22:17;59.70;;;25.80;;
25479;SDS011;13393;49.378;8.686;2022-12-18T03:24:44;58.93;;;27.47;;
25479;SDS011;13393;49.378;8.686;2022-12-18T03:27:12;63.67;;;26.97;;
25479;SDS011;13393;49.378;8.686;2022-12-18T03:29:42;72.33;;;28.50;;
25479;SDS011;13393;49.378;8.686;2022-12-18T03:32:10;57.33;;;27.07;;
25479;SDS011;13393;49.378;8.686;2022-12-18T03:34:39;55.73;;;25.80;;
25479;SDS011;13393;49.378;8.686;2022-12-18T03:37:07;63.13;;;29.90;;
25479;SDS011;13393;49.378;8.686;2022-12-18T03:39:34;60.70;;;27.87;;
25479;SDS011;13393;49.378;8.686;2022-12-18T03:42:01;64.73;;;27.90;;
25479;SDS011;13393;49.378;8.686;2022-12-18T03:44:32;51.90;;;24.23;;
25479;SDS011;13393;49.378;8.686;2022-12-18T03:47:03;67.77;;;29.90;;
25479;SDS011;13393;49.378;8.686;2022-12-18T03:49:33;55.43;;;27.60;;
25479;SDS011;13393;49.378;8.686;2022-12-18T03:52:02;61.37;;;27.53;;
25479;SDS011;13393;49.378;8.686;2022-12-18T03:54:29;68.07;;;28.97;;
25479;SDS011;13393;49.378;8.686;2022-12-18T03:56:58;71.93;;;28.40;;
25479;SDS011;13393;49.378;8.686;2022-12-18T03:59:25;62.70;;;26.30;;
25479;SDS011;13393;49.378;8.686;2022-12-18T04:01:53;62.13;;;26.47;;
25479;SDS011;13393;49.378;8.686;2022-12-18T04:04:20;63.30;;;27.77;;
25479;SDS011;13393;49.378;8.686;2022-12-18T04:06:47;80.00;;;30.17;;
25479;SDS011;13393;49.378;8.686;2022-12-18T04:09:17;59.50;;;28.60;;
25479;SDS011;13393;49.378;8.686;2022-12-18T04:11:44;62.70;;;27.93;;
25479;SDS011;13393;49.378;8.686;2022-12-18T04:14:12;59.93;;;26.83;;
25479;SDS011;13393;49.378;8.686;2022-12-18T04:16:38;63.67;;;27.00;;
25479;SDS011;13393;49.378;8.686;2022-12-18T04:19:05;55.40;;;25.47;;
25479;SDS011;13393;49.378;8.686;2022-12-18T04:21:31;138.37;;;27.73;;
25479;SDS011;13393;49.378;8.686;2022-12-18T04:23:57;77.13;;;27.93;;
25479;SDS011;13393;49.378;8.686;2022-12-18T04:26:25;61.70;;;25.50;;
25479;SDS011;13393;49.378;8.686;2022-12-18T04:28:51;66.53;;;28.53;;
25479;SDS011;13393;49.378;8.686;2022-12-18T04:31:18;64.17;;;27.13;;
25479;SDS011;13393;49.378;8.686;2022-12-18T04:33:44;76.13;;;28.37;;
25479;SDS011;13393;49.378;8.686;2022-12-18T04:36:10;65.43;;;28.17;;
25479;SDS011;13393;49.378;8.686;2022-12-18T04:38:38;65.03;;;28.10;;
25479;SDS011;13393;49.378;8.686;2022-12-18T04:41:04;64.33;;;28.60;;
25479;SDS011;13393;49.378;8.686;2022-12-18T04:43:32;67.37;;;29.53;;
25479;SDS011;13393;49.378;8.686;2022-12-18T04:46:02;71.33;;;29.80;;
25479;SDS011;13393;49.378;8.686;2022-12-18T04:48:29;75.43;;;30.83;;
25479;SDS011;13393;49.378;8.686;2022-12-18T04:50:55;62.57;;;26.50;;
25479;SDS011;13393;49.378;8.686;2022-12-18T04:53:22;57.97;;;27.17;;
25479;SDS011;13393;49.378;8.686;2022-12-18T04:55:48;58.63;;;25.57;;
25479;SDS011;13393;49.378;8.686;2022-12-18T04:58:15;63.23;;;27.60;;
25479;SDS011;13393;49.378;8.686;2022-12-18T05:00:42;59.07;;;25.27;;
25479;SDS011;13393;49.378;8.686;2022-12-18T05:03:09;70.87;;;27.93;;
25479;SDS011;13393;49.378;8.686;2022-12-18T05:05:35;79.57;;;29.60;;
25479;SDS011;13393;49.378;8.686;2022-12-18T05:08:01;79.00;;;27.83;;
25479;SDS011;13393;49.378;8.686;2022-12-18T05:10:28;57.17;;;24.93;;
25479;SDS011;13393;49.378;8.686;2022-12-18T05:12:54;64.73;;;27.67;;
25479;SDS011;13393;49.378;8.686;2022-12-18T05:15:27;61.97;;;26.40;;
25479;SDS011;13393;49.378;8.686;2022-12-18T05:17:55;66.10;;;27.30;;
25479;SDS011;13393;49.378;8.686;2022-12-18T05:20:22;58.30;;;24.33;;
25479;SDS011;13393;49.378;8.686;2022-12-18T05:22:48;63.13;;;29.53;;
25479;SDS011;13393;49.378;8.686;2022-12-18T05:25:15;59.37;;;28.03;;
25479;SDS011;13393;49.378;8.686;2022-12-18T05:27:41;60.73;;;26.47;;
25479;SDS011;13393;49.378;8.686;2022-12-18T05:30:08;65.57;;;27.60;;
25479;SDS011;13393;49.378;8.686;2022-12-18T05:32:34;59.73;;;25.80;;
25479;SDS011;13393;49.378;8.686;2022-12-18T05:35:02;64.47;;;27.30;;
25479;SDS011;13393;49.378;8.686;2022-12-18T05:37:29;62.13;;;27.43;;
25479;SDS011;13393;49.378;8.686;2022-12-18T05:39:55;65.00;;;28.07;;
25479;SDS011;13393;49.378;8.686;2022-12-18T05:42:22;59.90;;;26.90;;
25479;SDS011;13393;49.378;8.686;2022-12-18T05:44:48;67.93;;;29.07;;
25479;SDS011;13393;49.378;8.686;2022-12-18T05:47:14;58.13;;;25.70;;
25479;SDS011;13393;49.378;8.686;2022-12-18T05:49:41;56.37;;;25.37;;
25479;SDS011;13393;49.378;8.686;2022-12-18T05:52:08;69.47;;;28.70;;
25479;SDS011;13393;49.378;8.686;2022-12-18T05:54:35;60.07;;;26.50;;
25479;SDS011;13393;49.378;8.686;2022-12-18T05:57:01;60.90;;;26.00;;
25479;SDS011;13393;49.378;8.686;2022-12-18T05:59:28;64.40;;;26.73;;
25479;SDS011;13393;49.378;8.686;2022-12-18T06:01:54;66.97;;;29.10;;
25479;SDS011;13393;49.378;8.686;2022-12-18T06:04:20;64.67;;;27.40;;
25479;SDS011;13393;49.378;8.686;2022-12-18T06:06:47;59.77;;;26.50;;
25479;SDS011;13393;49.378;8.686;2022-12-18T06:09:15;73.63;;;29.23;;
25479;SDS011;13393;49.378;8.686;2022-12-18T06:11:42;63.63;;;26.53;;
25479;SDS011;13393;49.378;8.686;2022-12-18T06:14:09;67.47;;;28.83;;
25479;SDS011;13393;49.378;8.686;2022-12-18T06:16:35;66.20;;;27.67;;
25479;SDS011;13393;49.378;8.686;2022-12-18T06:19:02;65.97;;;29.10;;
25479;SDS011;13393;49.378;8.686;2022-12-18T06:21:29;64.83;;;26.40;;
25479;SDS011;13393;49.378;8.686;2022-12-18T06:23:56;66.27;;;27.70;;
25479;SDS011;13393;49.378;8.686;2022-12-18T06:26:24;67.03;;;28.30;;
25479;SDS011;13393;49.378;8.686;2022-12-18T06:28:50;73.90;;;29.73;;
25479;SDS011;13393;49.378;8.686;2022-12-18T06:31:16;69.70;;;29.47;;
25479;SDS011;13393;49.378;8.686;2022-12-18T06:33:43;61.63;;;28.07;;
25479;SDS011;13393;49.378;8.686;2022-12-18T06:36:10;60.47;;;27.30;;
25479;SDS011;13393;49.378;8.686;2022-12-18T06:38:38;64.50;;;25.80;;
25479;SDS011;13393;49.378;8.686;2022-12-18T06:41:06;66.17;;;28.80;;
25479;SDS011;13393;49.378;8.686;2022-12-18T06:43:33;69.23;;;28.43;;
25479;SDS011;13393;49.378;8.686;2022-12-18T06:46:00;58.77;;;25.27;;
25479;SDS011;13393;49.378;8.686;2022-12-18T06:48:27;63.87;;;27.30;;
25479;SDS011;13393;49.378;8.686;2022-12-18T06:50:53;58.53;;;25.47;;
25479;SDS011;13393;49.378;8.686;2022-12-18T06:53:19;60.33;;;27.27;;
25479;SDS011;13393;49.378;8.686;2022-12-18T06:55:46;58.40;;;25.10;;
25479;SDS011;13393;49.378;8.686;2022-12-18T06:58:12;64.20;;;25.97;;
25479;SDS011;13393;49.378;8.686;2022-12-18T07:00:40;58.03;;;24.60;;
25479;SDS011;13393;49.378;8.686;2022-12-18T07:03:06;58.37;;;26.20;;
25479;SDS011;13393;49.378;8.686;2022-12-18T07:05:33;61.43;;;26.37;;
25479;SDS011;13393;49.378;8.686;2022-12-18T07:07:59;56.60;;;25.47;;
25479;SDS011;13393;49.378;8.686;2022-12-18T07:10:25;70.13;;;28.87;;
25479;SDS011;13393;49.378;8.686;2022-12-18T07:12:52;63.33;;;27.80;;
25479;SDS011;13393;49.378;8.686;2022-12-18T07:15:18;57.63;;;26.87;;
25479;SDS011;13393;49.378;8.686;2022-12-18T07:17:46;58.13;;;27.27;;
25479;SDS011;13393;49.378;8.686;2022-12-18T07:20:12;64.70;;;29.37;;
25479;SDS011;13393;49.378;8.686;2022-12-18T07:22:38;64.67;;;28.70;;
25479;SDS011;13393;49.378;8.686;2022-12-18T07:25:05;65.13;;;27.97;;
25479;SDS011;13393;49.378;8.686;2022-12-18T07:27:32;64.13;;;28.67;;
25479;SDS011;13393;49.378;8.686;2022-12-18T07:29:58;64.37;;;27.53;;
25479;SDS011;13393;49.378;8.686;2022-12-18T07:32:25;65.70;;;27.73;;
25479;SDS011;13393;49.378;8.686;2022-12-18T07:34:52;66.53;;;28.13;;
25479;SDS011;13393;49.378;8.686;2022-12-18T07:37:19;70.83;;;28.27;;
25479;SDS011;13393;49.378;8.686;2022-12-18T07:39:45;65.43;;;28.30;;
25479;SDS011;13393;49.378;8.686;2022-12-18T07:42:11;62.63;;;28.33;;
25479;SDS011;13393;49.378;8.686;2022-12-18T07:47:22;59.23;;;25.13;;
25479;SDS011;13393;49.378;8.686;2022-12-18T07:49:48;58.57;;;25.83;;
25479;SDS011;13393;49.378;8.686;2022-12-18T07:52:16;60.17;;;25.57;;
25479;SDS011;13393;49.378;8.686;2022-12-18T07:54:42;59.67;;;27.97;;
25479;SDS011;13393;49.378;8.686;2022-12-18T07:57:09;61.17;;;25.77;;
25479;SDS011;13393;49.378;8.686;2022-12-18T07:59:36;60.73;;;25.77;;
25479;SDS011;13393;49.378;8.686;2022-12-18T08:02:03;58.13;;;25.63;;
25479;SDS011;13393;49.378;8.686;2022-12-18T08:04:29;59.87;;;26.53;;
25479;SDS011;13393;49.378;8.686;2022-12-18T08:06:55;55.73;;;26.53;;
25479;SDS011;13393;49.378;8.686;2022-12-18T08:09:23;55.13;;;26.33;;
25479;SDS011;13393;49.378;8.686;2022-12-18T08:11:50;57.03;;;26.27;;
25479;SDS011;13393;49.378;8.686;2022-12-18T08:14:16;54.97;;;26.67;;
25479;SDS011;13393;49.378;8.686;2022-12-18T08:16:42;54.17;;;24.63;;
25479;SDS011;13393;49.378;8.686;2022-12-18T08:19:09;49.77;;;23.80;;
25479;SDS011;13393;49.378;8.686;2022-12-18T08:21:38;50.50;;;23.27;;
25479;SDS011;13393;49.378;8.686;2022-12-18T08:24:08;51.00;;;24.73;;
25479;SDS011;13393;49.378;8.686;2022-12-18T08:26:36;48.47;;;22.97;;
25479;SDS011;13393;49.378;8.686;2022-12-18T08:29:03;48.33;;;23.53;;
25479;SDS011;13393;49.378;8.686;2022-12-18T08:31:29;49.33;;;24.30;;
25479;SDS011;13393;49.378;8.686;2022-12-18T08:33:56;49.80;;;24.63;;
25479;SDS011;13393;49.378;8.686;2022-12-18T08:36:23;46.93;;;23.50;;
25479;SDS011;13393;49.378;8.686;2022-12-18T08:38:49;52.40;;;24.63;;
25479;SDS011;13393;49.378;8.686;2022-12-18T08:41:16;52.83;;;24.77;;
25479;SDS011;13393;49.378;8.686;2022-12-18T08:43:44;49.87;;;24.60;;
25479;SDS011;13393;49.378;8.686;2022-12-18T08:46:34;46.07;;;25.03;;
25479;SDS011;13393;49.378;8.686;2022-12-18T08:49:01;43.37;;;23.03;;
25479;SDS011;13393;49.378;8.686;2022-12-18T08:51:27;43.63;;;22.53;;
25479;SDS011;13393;49.378;8.686;2022-12-18T08:53:53;46.67;;;23.87;;
25479;SDS011;13393;49.378;8.686;2022-12-18T08:56:20;48.80;;;23.57;;
25479;SDS011;13393;49.378;8.686;2022-12-18T08:58:50;47.43;;;22.57;;
25479;SDS011;13393;49.378;8.686;2022-12-18T09:01:17;52.30;;;24.60;;
25479;SDS011;13393;49.378;8.686;2022-12-18T09:03:46;48.87;;;24.30;;
25479;SDS011;13393;49.378;8.686;2022-12-18T09:06:13;41.30;;;20.53;;
25479;SDS011;13393;49.378;8.686;2022-12-18T09:08:40;48.17;;;24.83;;
25479;SDS011;13393;49.378;8.686;2022-12-18T09:11:10;47.93;;;24.67;;
25479;SDS011;13393;49.378;8.686;2022-12-18T09:13:37;44.77;;;23.17;;
25479;SDS011;13393;49.378;8.686;2022-12-18T09:16:06;46.97;;;23.93;;
25479;SDS011;13393;49.378;8.686;2022-12-18T09:18:32;41.53;;;22.53;;
25479;SDS011;13393;49.378;8.686;2022-12-18T09:20:58;39.07;;;22.27;;
25479;SDS011;13393;49.378;8.686;2022-12-18T09:23:25;47.63;;;23.43;;
25479;SDS011;13393;49.378;8.686;2022-12-18T09:25:51;44.70;;;21.87;;
25479;SDS011;13393;49.378;8.686;2022-12-18T09:28:18;44.17;;;23.33;;
25479;SDS011;13393;49.378;8.686;2022-12-18T09:30:46;46.40;;;24.10;;
25479;SDS011;13393;49.378;8.686;2022-12-18T09:33:14;46.97;;;23.47;;
25479;SDS011;13393;49.378;8.686;2022-12-18T09:35:41;44.00;;;22.37;;
25479;SDS011;13393;49.378;8.686;2022-12-18T09:38:08;40.57;;;21.23;;
25479;SDS011;13393;49.378;8.686;2022-12-18T09:40:36;45.67;;;23.20;;
25479;SDS011;13393;49.378;8.686;2022-12-18T09:43:06;43.50;;;23.03;;
25479;SDS011;13393;49.378;8.686;2022-12-18T09:45:34;43.93;;;22.67;;
25479;SDS011;13393;49.378;8.686;2022-12-18T09:48:04;45.73;;;23.10;;
25479;SDS011;13393;49.378;8.686;2022-12-18T09:50:34;45.17;;;23.97;;
25479;SDS011;13393;49.378;8.686;2022-12-18T09:53:02;41.90;;;21.37;;
25479;SDS011;13393;49.378;8.686;2022-12-18T09:55:31;43.50;;;23.03;;
25479;SDS011;13393;49.378;8.686;2022-12-18T09:58:00;45.90;;;23.40;;
25479;SDS011;13393;49.378;8.686;2022-12-18T10:00:28;46.37;;;23.07;;
25479;SDS011;13393;49.378;8.686;2022-12-18T10:02:56;44.60;;;22.70;;
25479;SDS011;13393;49.378;8.686;2022-12-18T10:05:27;47.43;;;24.07;;
25479;SDS011;13393;49.378;8.686;2022-12-18T10:08:00;41.90;;;23.10;;
25479;SDS011;13393;49.378;8.686;2022-12-18T10:10:32;43.53;;;23.20;;
25479;SDS011;13393;49.378;8.686;2022-12-18T10:15:30;39.40;;;20.23;;
25479;SDS011;13393;49.378;8.686;2022-12-18T10:18:00;42.13;;;21.10;;
25479;SDS011;13393;49.378;8.686;2022-12-18T10:20:32;39.87;;;20.87;;
25479;SDS011;13393;49.378;8.686;2022-12-18T10:23:04;47.97;;;23.77;;
25479;SDS011;13393;49.378;8.686;2022-12-18T10:25:34;40.53;;;22.30;;
25479;SDS011;13393;49.378;8.686;2022-12-18T10:28:07;47.00;;;23.67;;
25479;SDS011;13393;49.378;8.686;2022-12-18T10:30:35;44.47;;;21.90;;
25479;SDS011;13393;49.378;8.686;2022-12-18T10:33:01;45.78;;;23.52;;
25479;SDS011;13393;49.378;8.686;2022-12-18T10:35:28;43.67;;;22.57;;
25479;SDS011;13393;49.378;8.686;2022-12-18T10:38:03;45.42;;;23.33;;
25479;SDS011;13393;49.378;8.686;2022-12-18T10:40:29;47.80;;;23.47;;
25479;SDS011;13393;49.378;8.686;2022-12-18T10:43:03;45.47;;;22.97;;
25479;SDS011;13393;49.378;8.686;2022-12-18T10:45:29;52.87;;;24.80;;
25479;SDS011;13393;49.378;8.686;2022-12-18T10:47:56;47.67;;;23.30;;
25479;SDS011;13393;49.378;8.686;2022-12-18T10:50:24;45.60;;;23.67;;
25479;SDS011;13393;49.378;8.686;2022-12-18T10:52:53;47.67;;;23.93;;
25479;SDS011;13393;49.378;8.686;2022-12-18T10:55:21;46.50;;;23.30;;
25479;SDS011;13393;49.378;8.686;2022-12-18T10:57:48;43.85;;;22.88;;
25479;SDS011;13393;49.378;8.686;2022-12-18T11:00:22;47.72;;;24.20;;
25479;SDS011;13393;49.378;8.686;2022-12-18T11:02:49;42.92;;;21.98;;
25479;SDS011;13393;49.378;8.686;2022-12-18T11:05:26;46.67;;;23.77;;
25479;SDS011;13393;49.378;8.686;2022-12-18T11:07:53;47.47;;;24.10;;
25479;SDS011;13393;49.378;8.686;2022-12-18T11:10:20;45.53;;;22.20;;
25479;SDS011;13393;49.378;8.686;2022-12-18T11:12:49;46.05;;;24.20;;
25479;SDS011;13393;49.378;8.686;2022-12-18T11:15:16;49.22;;;25.42;;
25479;SDS011;13393;49.378;8.686;2022-12-18T11:17:45;46.08;;;23.25;;
25479;SDS011;13393;49.378;8.686;2022-12-18T11:20:23;41.78;;;21.95;;
25479;SDS011;13393;49.378;8.686;2022-12-18T11:22:54;44.25;;;23.58;;
25479;SDS011;13393;49.378;8.686;2022-12-18T11:25:22;49.38;;;24.70;;
25479;SDS011;13393;49.378;8.686;2022-12-18T11:27:51;44.67;;;23.85;;
25479;SDS011;13393;49.378;8.686;2022-12-18T11:30:22;41.05;;;22.88;;
25479;SDS011;13393;49.378;8.686;2022-12-18T11:32:49;48.17;;;24.52;;
25479;SDS011;13393;49.378;8.686;2022-12-18T11:35:17;45.97;;;23.23;;
25479;SDS011;13393;49.378;8.686;2022-12-18T11:37:47;44.70;;;22.52;;
25479;SDS011;13393;49.378;8.686;2022-12-18T11:40:15;45.50;;;23.35;;
25479;SDS011;13393;49.378;8.686;2022-12-18T11:42:45;43.42;;;22.67;;
25479;SDS011;13393;49.378;8.686;2022-12-18T11:45:28;47.72;;;25.13;;
25479;SDS011;13393;49.378;8.686;2022-12-18T11:47:57;46.85;;;25.02;;
25479;SDS011;13393;49.378;8.686;2022-12-18T11:50:26;50.53;;;24.70;;
25479;SDS011;13393;49.378;8.686;2022-12-18T11:52:52;45.15;;;22.25;;
25479;SDS011;13393;49.378;8.686;2022-12-18T11:55:23;41.78;;;23.25;;
25479;SDS011;13393;49.378;8.686;2022-12-18T11:57:52;47.78;;;24.15;;
25479;SDS011;13393;49.378;8.686;2022-12-18T12:00:20;43.22;;;22.15;;
25479;SDS011;13393;49.378;8.686;2022-12-18T12:02:54;50.03;;;22.95;;
25479;SDS011;13393;49.378;8.686;2022-12-18T12:05:25;43.53;;;22.85;;
25479;SDS011;13393;49.378;8.686;2022-12-18T12:07:54;44.80;;;23.80;;
25479;SDS011;13393;49.378;8.686;2022-12-18T12:10:32;52.25;;;23.95;;
25479;SDS011;13393;49.378;8.686;2022-12-18T12:13:07;44.53;;;22.38;;
25479;SDS011;13393;49.378;8.686;2022-12-18T12:15:40;45.63;;;24.35;;
25479;SDS011;13393;49.378;8.686;2022-12-18T12:18:16;49.70;;;23.00;;
25479;SDS011;13393;49.378;8.686;2022-12-18T12:20:49;43.35;;;22.88;;
25479;SDS011;13393;49.378;8.686;2022-12-18T12:23:20;45.08;;;23.73;;
25479;SDS011;13393;49.378;8.686;2022-12-18T12:25:49;50.65;;;26.33;;
25479;SDS011;13393;49.378;8.686;2022-12-18T12:28:20;50.38;;;25.90;;
25479;SDS011;13393;49.378;8.686;2022-12-18T12:33:25;46.78;;;25.23;;
25479;SDS011;13393;49.378;8.686;2022-12-18T12:35:56;52.30;;;26.00;;
25479;SDS011;13393;49.378;8.686;2022-12-18T12:38:28;48.55;;;25.27;;
25479;SDS011;13393;49.378;8.686;2022-12-18T12:40:56;50.63;;;25.45;;
25479;SDS011;13393;49.378;8.686;2022-12-18T12:43:27;49.45;;;26.00;;
25479;SDS011;13393;49.378;8.686;2022-12-18T12:45:54;48.75;;;24.98;;
25479;SDS011;13393;49.378;8.686;2022-12-18T12:48:27;44.53;;;23.73;;
25479;SDS011;13393;49.378;8.686;2022-12-18T12:50:57;48.85;;;24.67;;
25479;SDS011;13393;49.378;8.686;2022-12-18T12:53:26;45.97;;;24.33;;
25479;SDS011;13393;49.378;8.686;2022-12-18T12:55:55;48.03;;;24.45;;
25479;SDS011;13393;49.378;8.686;2022-12-18T12:58:24;48.80;;;25.42;;
25479;SDS011;13393;49.378;8.686;2022-12-18T13:00:54;47.55;;;24.20;;
25479;SDS011;13393;49.378;8.686;2022-12-18T13:03:26;49.30;;;25.73;;
25479;SDS011;13393;49.378;8.686;2022-12-18T13:05:56;49.15;;;24.58;;
25479;SDS011;13393;49.378;8.686;2022-12-18T13:08:26;49.40;;;24.60;;
25479;SDS011;13393;49.378;8.686;2022-12-18T13:10:53;47.45;;;25.38;;
25479;SDS011;13393;49.378;8.686;2022-12-18T13:13:48;46.17;;;23.63;;
25479;SDS011;13393;49.378;8.686;2022-12-18T13:16:14;43.20;;;23.13;;
25479;SDS011;13393;49.378;8.686;2022-12-18T13:18:47;46.22;;;24.63;;
25479;SDS011;13393;49.378;8.686;2022-12-18T13:21:17;51.08;;;24.58;;
25479;SDS011;13393;49.378;8.686;2022-12-18T13:23:46;47.33;;;23.73;;
25479;SDS011;13393;49.378;8.686;2022-12-18T13:26:29;43.03;;;21.98;;
25479;SDS011;13393;49.378;8.686;2022-12-18T13:28:59;46.00;;;24.08;;
25479;SDS011;13393;49.378;8.686;2022-12-18T13:34:24;44.53;;;22.65;;
25479;SDS011;13393;49.378;8.686;2022-12-18T13:36:53;46.67;;;24.67;;
25479;SDS011;13393;49.378;8.686;2022-12-18T13:39:24;49.70;;;24.15;;
25479;SDS011;13393;49.378;8.686;2022-12-18T13:41:52;46.67;;;24.08;;
25479;SDS011;13393;49.378;8.686;2022-12-18T13:44:26;48.83;;;23.52;;
25479;SDS011;13393;49.378;8.686;2022-12-18T13:46:55;45.55;;;23.02;;
25479;SDS011;13393;49.378;8.686;2022-12-18T13:49:22;40.88;;;22.63;;
25479;SDS011;13393;49.378;8.686;2022-12-18T13:51:50;43.20;;;23.52;;
25479;SDS011;13393;49.378;8.686;2022-12-18T13:54:19;45.17;;;23.02;;
25479;SDS011;13393;49.378;8.686;2022-12-18T13:56:47;42.53;;;22.88;;
25479;SDS011;13393;49.378;8.686;2022-12-18T13:59:15;43.13;;;22.33;;
25479;SDS011;13393;49.378;8.686;2022-12-18T14:01:43;47.15;;;24.90;;
25479;SDS011;13393;49.378;8.686;2022-12-18T14:04:10;46.67;;;23.17;;
25479;SDS011;13393;49.378;8.686;2022-12-18T14:06:37;47.78;;;23.73;;
25479;SDS011;13393;49.378;8.686;2022-12-18T14:09:04;44.38;;;23.38;;
25479;SDS011;13393;49.378;8.686;2022-12-18T14:11:31;48.88;;;24.08;;
25479;SDS011;13393;49.378;8.686;2022-12-18T14:13:58;46.40;;;23.83;;
25479;SDS011;13393;49.378;8.686;2022-12-18T14:16:27;47.05;;;24.65;;
25479;SDS011;13393;49.378;8.686;2022-12-18T14:18:54;46.30;;;23.80;;
25479;SDS011;13393;49.378;8.686;2022-12-18T14:21:23;44.88;;;23.98;;
25479;SDS011;13393;49.378;8.686;2022-12-18T14:24:02;44.28;;;22.45;;
25479;SDS011;13393;49.378;8.686;2022-12-18T14:26:29;48.80;;;23.83;;
25479;SDS011;13393;49.378;8.686;2022-12-18T14:28:58;47.42;;;23.95;;
25479;SDS011;13393;49.378;8.686;2022-12-18T14:31:26;48.42;;;24.38;;
25479;SDS011;13393;49.378;8.686;2022-12-18T14:33:53;48.92;;;23.80;;
25479;SDS011;13393;49.378;8.686;2022-12-18T14:36:20;44.78;;;22.88;;
25479;SDS011;13393;49.378;8.686;2022-12-18T14:38:48;46.17;;;23.45;;
25479;SDS011;13393;49.378;8.686;2022-12-18T14:41:15;43.45;;;22.15;;